createdAt,value
2017-06-21T00:01:05.291Z,1020.93
2017-06-21T00:02:14.183Z,1020.97
2017-06-21T00:03:23.071Z,1020.95
2017-06-21T00:04:32.560Z,1020.97
2017-06-21T00:05:41.451Z,1020.95
2017-06-21T00:06:50.662Z,1020.95
2017-06-21T00:07:59.873Z,1020.97
2017-06-21T00:09:08.797Z,1020.99
2017-06-21T00:10:18.344Z,1021.03
2017-06-21T00:11:27.704Z,1021.02
2017-06-21T00:12:36.618Z,1021.01
2017-06-21T00:13:45.511Z,1021.04
2017-06-21T00:14:54.399Z,1021.03
2017-06-21T00:16:03.286Z,1021.03
2017-06-21T00:17:12.273Z,1021.04
2017-06-21T00:18:21.164Z,1021.08
2017-06-21T00:19:30.417Z,1021.08
2017-06-21T00:20:39.314Z,1021.05
2017-06-21T00:21:48.527Z,1021.02
2017-06-21T00:22:57.671Z,1021.02
2017-06-21T00:24:07.217Z,1020.99
2017-06-21T00:25:16.107Z,1021.03
2017-06-21T00:26:25.325Z,1021.01
2017-06-21T00:27:34.213Z,1021.09
2017-06-21T00:28:43.256Z,1021.08
2017-06-21T00:29:52.499Z,1021.1
2017-06-21T00:31:01.392Z,1021.14
2017-06-21T00:32:10.606Z,1021.09
2017-06-21T00:33:19.815Z,1021.11
2017-06-21T00:34:29.338Z,1021.11
2017-06-21T00:35:38.551Z,1021.09
2017-06-21T00:36:47.759Z,1021.11
2017-06-21T00:37:56.647Z,1021.04
2017-06-21T00:39:05.539Z,1021.13
2017-06-21T00:40:14.428Z,1021.13
2017-06-21T00:41:23.638Z,1021.07
2017-06-21T00:42:32.527Z,1021.05
2017-06-21T00:43:41.415Z,1021.06
2017-06-21T00:44:50.625Z,1021.03
2017-06-21T00:45:59.811Z,1021.05
2017-06-21T00:47:09.025Z,1021.04
2017-06-21T00:48:17.916Z,1021.05
2017-06-21T00:49:26.809Z,1021.09
2017-06-21T00:50:36.019Z,1021.03
2017-06-21T00:51:45.055Z,1021.07
2017-06-21T00:52:53.941Z,1021.08
2017-06-21T00:54:02.828Z,1021.08
2017-06-21T00:55:12.042Z,1021.04
2017-06-21T00:56:20.929Z,1021.04
2017-06-21T00:57:30.291Z,1021.02
2017-06-21T00:58:39.180Z,1021.04
2017-06-21T00:59:48.065Z,1020.99
2017-06-21T01:00:57.278Z,1021.02
2017-06-21T01:02:06.492Z,1021
2017-06-21T01:03:15.429Z,1020.96
2017-06-21T01:04:24.320Z,1020.99
2017-06-21T01:05:33.858Z,1020.99
2017-06-21T01:06:42.749Z,1020.96
2017-06-21T01:07:51.637Z,1021.01
2017-06-21T01:09:00.677Z,1020.97
2017-06-21T01:10:09.615Z,1020.97
2017-06-21T01:11:18.503Z,1020.95
2017-06-21T01:12:27.392Z,1020.95
2017-06-21T01:13:36.277Z,1021.02
2017-06-21T01:14:45.867Z,1020.94
2017-06-21T01:15:55.404Z,1020.96
2017-06-21T01:17:04.618Z,1020.93
2017-06-21T01:18:13.511Z,1020.99
2017-06-21T01:19:22.723Z,1020.94
2017-06-21T01:20:31.764Z,1020.92
2017-06-21T01:21:40.653Z,1020.96
2017-06-21T01:22:50.195Z,1020.96
2017-06-21T01:23:59.411Z,1020.98
2017-06-21T01:25:08.299Z,1020.98
2017-06-21T01:26:17.661Z,1021.01
2017-06-21T01:27:26.586Z,1020.98
2017-06-21T01:28:35.479Z,1021
2017-06-21T01:29:44.410Z,1021.04
2017-06-21T01:30:53.299Z,1021.03
2017-06-21T01:32:02.487Z,1021.01
2017-06-21T01:33:11.700Z,1021.04
2017-06-21T01:34:20.913Z,1021.03
2017-06-21T01:35:29.801Z,1021.01
2017-06-21T01:36:38.689Z,1021.06
2017-06-21T01:37:47.577Z,1021
2017-06-21T01:38:56.462Z,1021.09
2017-06-21T01:40:05.346Z,1021.09
2017-06-21T01:41:14.234Z,1021.12
2017-06-21T01:42:23.446Z,1021.12
2017-06-21T01:43:32.487Z,1021.1
2017-06-21T01:44:41.377Z,1021.12
2017-06-21T01:45:50.261Z,1021.06
2017-06-21T01:46:59.149Z,1021
2017-06-21T01:48:08.365Z,1021.02
2017-06-21T01:49:17.827Z,1021.04
2017-06-21T01:50:26.729Z,1021.04
2017-06-21T01:51:35.616Z,1020.97
2017-06-21T01:52:45.150Z,1020.99
2017-06-21T01:53:54.035Z,1021
2017-06-21T01:55:03.069Z,1021.02
2017-06-21T01:56:11.981Z,1020.97
2017-06-21T01:57:21.190Z,1020.99
2017-06-21T01:58:30.075Z,1020.98
2017-06-21T01:59:39.612Z,1020.98
2017-06-21T02:00:48.871Z,1021
2017-06-21T02:01:58.090Z,1021.05
2017-06-21T02:03:06.986Z,1021.02
2017-06-21T02:04:15.877Z,1021.01
2017-06-21T02:05:24.761Z,1021.04
2017-06-21T02:06:34.081Z,1021.03
2017-06-21T02:07:42.970Z,1021.05
2017-06-21T02:08:51.860Z,1021.07
2017-06-21T02:10:00.746Z,1021.09
2017-06-21T02:11:09.637Z,1021.1
2017-06-21T02:12:18.676Z,1021.12
2017-06-21T02:13:27.893Z,1021.12
2017-06-21T02:14:37.107Z,1021.08
2017-06-21T02:15:46.329Z,1021.06
2017-06-21T02:16:55.222Z,1021.08
2017-06-21T02:18:04.111Z,1021.05
2017-06-21T02:19:13.649Z,1021.03
2017-06-21T02:20:22.532Z,1021.05
2017-06-21T02:21:31.783Z,1021.01
2017-06-21T02:22:41.003Z,1021.03
2017-06-21T02:23:50.463Z,1020.98
2017-06-21T02:24:59.678Z,1021.02
2017-06-21T02:26:08.566Z,1021
2017-06-21T02:27:17.454Z,1020.99
2017-06-21T02:28:26.663Z,1021.01
2017-06-21T02:29:35.989Z,1020.97
2017-06-21T02:30:45.199Z,1021.02
2017-06-21T02:31:54.120Z,1021
2017-06-21T02:33:03.011Z,1021
2017-06-21T02:34:11.901Z,1021.04
2017-06-21T02:35:20.843Z,1021.04
2017-06-21T02:36:30.066Z,1021.06
2017-06-21T02:37:39.281Z,1021.02
2017-06-21T02:38:48.497Z,1021
2017-06-21T02:39:57.711Z,1020.98
2017-06-21T02:41:07.080Z,1021
2017-06-21T02:42:16.620Z,1020.97
2017-06-21T02:43:25.510Z,1020.94
2017-06-21T02:44:34.720Z,1020.99
2017-06-21T02:45:43.607Z,1020.98
2017-06-21T02:46:52.641Z,1020.95
2017-06-21T02:48:01.529Z,1020.98
2017-06-21T02:49:10.415Z,1020.93
2017-06-21T02:50:19.303Z,1020.97
2017-06-21T02:51:28.191Z,1020.97
2017-06-21T02:52:37.456Z,1020.93
2017-06-21T02:53:46.666Z,1020.94
2017-06-21T02:54:55.551Z,1020.94
2017-06-21T02:56:04.443Z,1020.94
2017-06-21T02:57:13.655Z,1020.99
2017-06-21T02:58:22.869Z,1020.99
2017-06-21T02:59:31.758Z,1021
2017-06-21T03:00:40.647Z,1021.04
2017-06-21T03:01:49.534Z,1021.05
2017-06-21T03:02:59.067Z,1021
2017-06-21T03:04:08.010Z,1021.01
2017-06-21T03:05:17.224Z,1020.96
2017-06-21T03:06:26.111Z,1020.99
2017-06-21T03:07:35.325Z,1020.95
2017-06-21T03:08:44.537Z,1020.96
2017-06-21T03:09:54.052Z,1020.97
2017-06-21T03:11:02.940Z,1020.98
2017-06-21T03:12:11.832Z,1021
2017-06-21T03:13:21.367Z,1020.98
2017-06-21T03:14:30.254Z,1020.98
2017-06-21T03:15:39.466Z,1020.97
2017-06-21T03:16:48.357Z,1021.01
2017-06-21T03:17:57.572Z,1020.99
2017-06-21T03:19:06.460Z,1021.02
2017-06-21T03:20:15.671Z,1021.03
2017-06-21T03:21:24.663Z,1021
2017-06-21T03:22:33.549Z,1021.04
2017-06-21T03:23:43.082Z,1021.05
2017-06-21T03:24:51.970Z,1021.01
2017-06-21T03:26:00.863Z,1021.05
2017-06-21T03:27:10.227Z,1021.1
2017-06-21T03:28:19.434Z,1021.11
2017-06-21T03:29:28.640Z,1021.12
2017-06-21T03:30:37.523Z,1021.07
2017-06-21T03:31:46.458Z,1021.15
2017-06-21T03:32:55.395Z,1021.13
2017-06-21T03:34:04.284Z,1021.1
2017-06-21T03:35:13.491Z,1021.07
2017-06-21T03:36:22.380Z,1021.08
2017-06-21T03:37:31.596Z,1021.08
2017-06-21T03:38:40.633Z,1021.09
2017-06-21T03:39:49.845Z,1021.1
2017-06-21T03:40:59.058Z,1021.06
2017-06-21T03:42:07.948Z,1021.05
2017-06-21T03:43:16.835Z,1021.06
2017-06-21T03:44:26.374Z,1021.05
2017-06-21T03:45:35.915Z,1021.04
2017-06-21T03:46:44.801Z,1021.07
2017-06-21T03:47:53.690Z,1021.02
2017-06-21T03:49:03.226Z,1021.05
2017-06-21T03:50:12.635Z,1021.05
2017-06-21T03:51:21.850Z,1021.03
2017-06-21T03:52:30.745Z,1021.01
2017-06-21T03:53:39.954Z,1021.04
2017-06-21T03:54:48.841Z,1021.04
2017-06-21T03:55:58.318Z,1021.05
2017-06-21T03:57:07.209Z,1021.1
2017-06-21T03:58:16.424Z,1021.1
2017-06-21T03:59:25.645Z,1021.12
2017-06-21T04:00:34.532Z,1021.15
2017-06-21T04:01:44.121Z,1021.15
2017-06-21T04:02:53.337Z,1021.16
2017-06-21T04:04:02.230Z,1021.2
2017-06-21T04:05:11.116Z,1021.15
2017-06-21T04:06:20.337Z,1021.17
2017-06-21T04:07:29.377Z,1021.18
2017-06-21T04:08:38.271Z,1021.18
2017-06-21T04:09:47.161Z,1021.18
2017-06-21T04:10:56.058Z,1021.19
2017-06-21T04:12:05.270Z,1021.19
2017-06-21T04:13:14.158Z,1021.22
2017-06-21T04:14:23.048Z,1021.15
2017-06-21T04:15:31.938Z,1021.13
2017-06-21T04:16:40.828Z,1021.13
2017-06-21T04:17:49.713Z,1021.17
2017-06-21T04:18:58.648Z,1021.15
2017-06-21T04:20:07.536Z,1021.13
2017-06-21T04:21:16.754Z,1021.11
2017-06-21T04:22:25.648Z,1021.13
2017-06-21T04:23:34.862Z,1021.14
2017-06-21T04:24:44.422Z,1021.13
2017-06-21T04:27:34.894Z,1021.19
2017-06-21T04:28:44.104Z,1021.18
2017-06-21T04:29:53.617Z,1021.13
2017-06-21T04:31:02.508Z,1021.14
2017-06-21T04:32:11.721Z,1021.17
2017-06-21T04:33:20.620Z,1021.16
2017-06-21T04:34:29.835Z,1021.13
2017-06-21T04:35:39.049Z,1021.13
2017-06-21T04:36:47.936Z,1021.16
2017-06-21T04:37:56.828Z,1021.14
2017-06-21T04:39:05.716Z,1021.16
2017-06-21T04:40:14.602Z,1021.18
2017-06-21T04:41:23.817Z,1021.16
2017-06-21T04:42:32.706Z,1021.12
2017-06-21T04:43:41.596Z,1021.17
2017-06-21T04:44:50.810Z,1021.14
2017-06-21T04:46:00.023Z,1021.17
2017-06-21T04:47:09.388Z,1021.14
2017-06-21T04:48:18.278Z,1021.16
2017-06-21T04:49:27.818Z,1021.11
2017-06-21T04:50:37.031Z,1021.09
2017-06-21T04:51:45.917Z,1021.14
2017-06-21T04:52:54.902Z,1021.13
2017-06-21T04:54:03.788Z,1021.12
2017-06-21T04:55:12.675Z,1021.12
2017-06-21T04:56:21.561Z,1021.12
2017-06-21T04:57:30.451Z,1021.09
2017-06-21T04:58:39.497Z,1021.12
2017-06-21T04:59:48.382Z,1021.03
2017-06-21T05:00:57.603Z,1021.04
2017-06-21T05:02:06.493Z,1020.97
2017-06-21T05:03:15.389Z,1020.99
2017-06-21T05:04:24.485Z,1020.98
2017-06-21T05:05:33.699Z,1020.97
2017-06-21T05:06:42.588Z,1020.98
2017-06-21T05:07:52.455Z,1021.02
2017-06-21T05:09:01.343Z,1020.99
2017-06-21T05:10:10.751Z,1020.99
2017-06-21T05:11:19.642Z,1021
2017-06-21T05:12:28.534Z,1020.98
2017-06-21T05:13:37.422Z,1021
2017-06-21T05:14:46.311Z,1021.02
2017-06-21T05:15:55.781Z,1021.04
2017-06-21T05:17:04.675Z,1021.03
2017-06-21T05:18:13.567Z,1021.03
2017-06-21T05:19:22.457Z,1021
2017-06-21T05:20:31.673Z,1021.02
2017-06-21T05:21:41.042Z,1021
2017-06-21T05:22:50.264Z,1021.03
2017-06-21T05:23:59.160Z,1021.05
2017-06-21T05:25:08.058Z,1021.05
2017-06-21T05:26:16.947Z,1021.06
2017-06-21T05:27:25.836Z,1021.06
2017-06-21T05:28:35.059Z,1021.06
2017-06-21T05:29:43.950Z,1021.1
2017-06-21T05:30:53.175Z,1021.07
2017-06-21T05:32:02.395Z,1021.08
2017-06-21T05:33:11.537Z,1021.1
2017-06-21T05:34:20.426Z,1021.08
2017-06-21T05:35:29.640Z,1021
2017-06-21T05:36:38.530Z,1021.1
2017-06-21T05:37:47.418Z,1021.04
2017-06-21T05:38:57.205Z,1021.08
2017-06-21T05:40:06.419Z,1021.06
2017-06-21T05:41:15.308Z,1021.13
2017-06-21T05:42:24.195Z,1021.11
2017-06-21T05:43:33.086Z,1021.12
2017-06-21T05:44:42.125Z,1021.07
2017-06-21T05:45:51.015Z,1021.1
2017-06-21T05:46:59.925Z,1021.11
2017-06-21T05:48:08.817Z,1021.11
2017-06-21T05:49:17.706Z,1021.1
2017-06-21T05:50:26.846Z,1021.14
2017-06-21T05:51:36.075Z,1021.09
2017-06-21T05:52:45.287Z,1021.07
2017-06-21T05:53:54.201Z,1021.06
2017-06-21T05:55:03.207Z,1021.05
2017-06-21T05:56:12.427Z,1021.03
2017-06-21T05:57:21.644Z,1021.01
2017-06-21T05:58:30.538Z,1020.97
2017-06-21T05:59:39.430Z,1021
2017-06-21T06:00:48.970Z,1021.03
2017-06-21T06:01:57.859Z,1021.02
2017-06-21T06:03:07.070Z,1021.05
2017-06-21T06:04:15.958Z,1021.08
2017-06-21T06:05:25.169Z,1021.1
2017-06-21T06:06:34.382Z,1021.11
2017-06-21T06:07:43.269Z,1021.14
2017-06-21T06:08:52.158Z,1021.16
2017-06-21T06:10:01.049Z,1021.12
2017-06-21T06:11:10.363Z,1021.07
2017-06-21T06:12:19.252Z,1020.98
2017-06-21T06:13:28.139Z,1021.02
2017-06-21T06:14:37.354Z,1021.05
2017-06-21T06:15:46.249Z,1021.02
2017-06-21T06:16:55.239Z,1021.09
2017-06-21T06:18:04.131Z,1021.08
2017-06-21T06:19:13.019Z,1021.11
2017-06-21T06:20:21.907Z,1021.12
2017-06-21T06:21:31.135Z,1021.12
2017-06-21T06:22:40.503Z,1021.14
2017-06-21T06:23:49.396Z,1021.15
2017-06-21T06:24:58.613Z,1021.18
2017-06-21T06:26:07.501Z,1021.15
2017-06-21T06:27:16.719Z,1021.18
2017-06-21T06:28:26.306Z,1021.18
2017-06-21T06:29:35.193Z,1021.18
2017-06-21T06:30:44.407Z,1021.15
2017-06-21T06:31:53.301Z,1021.12
2017-06-21T06:33:02.516Z,1021.14
2017-06-21T06:34:11.510Z,1021.13
2017-06-21T06:35:20.724Z,1021.17
2017-06-21T06:36:29.938Z,1021.1
2017-06-21T06:37:38.833Z,1021.16
2017-06-21T06:38:47.732Z,1021.14
2017-06-21T06:39:56.621Z,1021.14
2017-06-21T06:41:05.509Z,1021.13
2017-06-21T06:42:14.724Z,1021.22
2017-06-21T06:43:23.934Z,1021.21
2017-06-21T06:44:32.826Z,1021.18
2017-06-21T06:45:41.872Z,1021.14
2017-06-21T06:46:50.761Z,1021.13
2017-06-21T06:48:00.301Z,1021.13
2017-06-21T06:49:09.192Z,1021.12
2017-06-21T06:50:18.404Z,1021.13
2017-06-21T06:51:27.873Z,1021.15
2017-06-21T06:52:36.768Z,1021.19
2017-06-21T06:53:45.665Z,1021.18
2017-06-21T06:54:54.883Z,1021.17
2017-06-21T06:56:03.781Z,1021.21
2017-06-21T06:57:13.172Z,1021.22
2017-06-21T06:58:22.062Z,1021.19
2017-06-21T06:59:30.950Z,1021.2
2017-06-21T07:00:39.836Z,1021.14
2017-06-21T07:01:48.724Z,1021.08
2017-06-21T07:02:57.765Z,1021.07
2017-06-21T07:04:06.657Z,1021.04
2017-06-21T07:05:16.194Z,1021
2017-06-21T07:06:25.089Z,1021.06
2017-06-21T07:07:33.987Z,1021.06
2017-06-21T07:08:43.784Z,1021.06
2017-06-21T07:09:52.684Z,1021.05
2017-06-21T07:11:01.918Z,1021.09
2017-06-21T07:12:10.900Z,1021.09
2017-06-21T07:13:19.812Z,1021.1
2017-06-21T07:14:29.056Z,1021.14
2017-06-21T07:15:38.280Z,1021.12
2017-06-21T07:16:47.174Z,1021.08
2017-06-21T07:17:56.069Z,1021.12
2017-06-21T07:19:04.964Z,1021.12
2017-06-21T07:20:14.244Z,1021.11
2017-06-21T07:21:23.155Z,1021.13
2017-06-21T07:22:32.425Z,1021.1
2017-06-21T07:23:41.321Z,1021.12
2017-06-21T07:24:50.540Z,1021.03
2017-06-21T07:25:59.640Z,1021.07
2017-06-21T07:27:08.857Z,1021.04
2017-06-21T07:28:17.750Z,1021.04
2017-06-21T07:29:26.964Z,1021.05
2017-06-21T07:30:35.859Z,1021.05
2017-06-21T07:31:44.903Z,1021.06
2017-06-21T07:32:54.159Z,1021.05
2017-06-21T07:34:03.050Z,1021.09
2017-06-21T07:35:11.961Z,1021.09
2017-06-21T07:36:21.505Z,1021.07
2017-06-21T07:37:30.978Z,1021.06
2017-06-21T07:38:40.200Z,1020.99
2017-06-21T07:39:49.091Z,1021.01
2017-06-21T07:40:58.310Z,1020.97
2017-06-21T07:42:07.205Z,1020.94
2017-06-21T07:43:16.469Z,1020.95
2017-06-21T07:44:25.691Z,1020.95
2017-06-21T07:45:34.904Z,1020.97
2017-06-21T07:46:44.125Z,1020.93
2017-06-21T07:47:53.674Z,1020.96
2017-06-21T07:49:02.815Z,1020.94
2017-06-21T07:50:12.048Z,1020.93
2017-06-21T07:51:20.938Z,1020.95
2017-06-21T07:52:29.826Z,1020.97
2017-06-21T07:53:38.720Z,1020.9
2017-06-21T07:54:47.613Z,1020.91
2017-06-21T07:55:56.832Z,1020.87
2017-06-21T07:57:06.049Z,1020.85
2017-06-21T07:58:15.265Z,1020.84
2017-06-21T07:59:24.478Z,1020.85
2017-06-21T08:00:33.463Z,1020.83
2017-06-21T08:01:42.352Z,1020.83
2017-06-21T08:02:51.255Z,1020.82
2017-06-21T08:04:00.808Z,1020.81
2017-06-21T08:05:09.702Z,1020.85
2017-06-21T08:06:18.694Z,1020.83
2017-06-21T08:07:27.588Z,1020.82
2017-06-21T08:08:36.498Z,1020.84
2017-06-21T08:09:45.401Z,1020.84
2017-06-21T08:10:54.289Z,1020.88
2017-06-21T08:12:03.339Z,1020.9
2017-06-21T08:13:12.229Z,1020.91
2017-06-21T08:14:21.120Z,1020.89
2017-06-21T08:15:30.336Z,1020.92
2017-06-21T08:16:39.550Z,1020.9
2017-06-21T08:17:48.867Z,1020.93
2017-06-21T08:18:57.761Z,1020.97
2017-06-21T08:20:07.303Z,1020.96
2017-06-21T08:21:16.518Z,1020.97
2017-06-21T08:22:25.412Z,1020.94
2017-06-21T08:23:34.509Z,1020.93
2017-06-21T08:24:43.402Z,1020.95
2017-06-21T08:25:52.294Z,1020.99
2017-06-21T08:27:01.508Z,1020.97
2017-06-21T08:28:10.406Z,1020.94
2017-06-21T08:29:19.300Z,1020.95
2017-06-21T08:30:28.519Z,1020.94
2017-06-21T08:31:37.738Z,1020.9
2017-06-21T08:32:46.629Z,1020.91
2017-06-21T08:33:55.523Z,1020.92
2017-06-21T08:35:04.991Z,1020.9
2017-06-21T08:36:14.533Z,1020.88
2017-06-21T08:37:23.746Z,1020.88
2017-06-21T08:38:32.637Z,1020.9
2017-06-21T08:39:41.531Z,1020.87
2017-06-21T08:40:50.900Z,1020.87
2017-06-21T08:42:00.117Z,1020.87
2017-06-21T08:43:09.339Z,1020.88
2017-06-21T08:44:18.236Z,1020.84
2017-06-21T08:45:27.127Z,1020.84
2017-06-21T08:46:36.498Z,1020.89
2017-06-21T08:47:45.715Z,1020.94
2017-06-21T08:48:54.932Z,1020.91
2017-06-21T08:50:03.850Z,1020.93
2017-06-21T08:51:13.077Z,1020.92
2017-06-21T08:52:22.122Z,1020.89
2017-06-21T08:53:31.340Z,1020.92
2017-06-21T08:54:40.556Z,1020.94
2017-06-21T08:55:49.453Z,1020.92
2017-06-21T08:56:58.672Z,1020.86
2017-06-21T08:58:07.716Z,1020.87
2017-06-21T08:59:16.935Z,1020.87
2017-06-21T09:00:26.156Z,1020.82
2017-06-21T09:01:35.379Z,1020.76
2017-06-21T09:02:44.597Z,1020.8
2017-06-21T09:03:53.640Z,1020.79
2017-06-21T09:05:02.534Z,1020.77
2017-06-21T09:06:11.425Z,1020.79
2017-06-21T09:07:20.320Z,1020.76
2017-06-21T09:08:29.545Z,1020.75
2017-06-21T09:09:38.688Z,1020.78
2017-06-21T09:10:47.615Z,1020.77
2017-06-21T09:11:56.542Z,1020.76
2017-06-21T09:13:06.129Z,1020.73
2017-06-21T09:14:15.030Z,1020.74
2017-06-21T09:15:24.227Z,1020.74
2017-06-21T09:16:33.126Z,1020.69
2017-06-21T09:17:42.666Z,1020.69
2017-06-21T09:18:51.561Z,1020.7
2017-06-21T09:20:00.457Z,1020.73
2017-06-21T09:21:09.778Z,1020.76
2017-06-21T09:22:19.000Z,1020.79
2017-06-21T09:23:27.893Z,1020.76
2017-06-21T09:24:37.113Z,1020.73
2017-06-21T09:25:46.333Z,1020.7
2017-06-21T09:26:55.602Z,1020.64
2017-06-21T09:28:04.822Z,1020.68
2017-06-21T09:29:13.723Z,1020.7
2017-06-21T09:30:23.270Z,1020.72
2017-06-21T09:31:32.853Z,1020.73
2017-06-21T09:32:42.005Z,1020.68
2017-06-21T09:33:51.228Z,1020.7
2017-06-21T09:35:00.770Z,1020.75
2017-06-21T09:36:09.670Z,1020.69
2017-06-21T09:37:18.572Z,1020.69
2017-06-21T09:38:27.619Z,1020.66
2017-06-21T09:39:36.842Z,1020.64
2017-06-21T09:40:45.739Z,1020.7
2017-06-21T09:41:54.640Z,1020.73
2017-06-21T09:43:04.197Z,1020.74
2017-06-21T09:44:13.468Z,1020.78
2017-06-21T09:45:22.363Z,1020.76
2017-06-21T09:46:31.262Z,1020.8
2017-06-21T09:47:40.160Z,1020.77
2017-06-21T09:48:49.052Z,1020.77
2017-06-21T09:49:58.045Z,1020.66
2017-06-21T09:51:07.593Z,1020.67
2017-06-21T09:52:16.820Z,1020.63
2017-06-21T09:53:25.713Z,1020.66
2017-06-21T09:54:34.927Z,1020.71
2017-06-21T09:55:44.243Z,1020.69
2017-06-21T09:56:53.464Z,1020.72
2017-06-21T09:58:02.687Z,1020.72
2017-06-21T09:59:11.584Z,1020.77
2017-06-21T10:00:20.477Z,1020.72
2017-06-21T10:01:29.521Z,1020.7
2017-06-21T10:02:38.756Z,1020.69
2017-06-21T10:03:47.660Z,1020.66
2017-06-21T10:04:57.304Z,1020.63
2017-06-21T10:06:06.528Z,1020.64
2017-06-21T10:07:15.571Z,1020.63
2017-06-21T10:08:24.467Z,1020.64
2017-06-21T10:09:33.687Z,1020.66
2017-06-21T10:10:42.583Z,1020.63
2017-06-21T10:11:51.479Z,1020.67
2017-06-21T10:13:00.817Z,1020.63
2017-06-21T10:14:09.714Z,1020.59
2017-06-21T10:15:18.607Z,1020.56
2017-06-21T10:16:28.152Z,1020.57
2017-06-21T10:17:37.059Z,1020.59
2017-06-21T10:18:46.105Z,1020.59
2017-06-21T10:19:55.322Z,1020.54
2017-06-21T10:21:04.543Z,1020.56
2017-06-21T10:22:13.795Z,1020.57
2017-06-21T10:23:22.742Z,1020.52
2017-06-21T10:24:31.795Z,1020.52
2017-06-21T10:25:41.337Z,1020.55
2017-06-21T10:26:50.233Z,1020.56
2017-06-21T10:27:59.456Z,1020.52
2017-06-21T10:29:09.014Z,1020.54
2017-06-21T10:30:18.547Z,1020.57
2017-06-21T10:31:27.819Z,1020.58
2017-06-21T10:32:37.075Z,1020.53
2017-06-21T10:33:45.969Z,1020.51
2017-06-21T10:34:54.865Z,1020.53
2017-06-21T10:36:04.678Z,1020.56
2017-06-21T10:37:14.260Z,1020.55
2017-06-21T10:38:23.489Z,1020.52
2017-06-21T10:39:32.387Z,1020.47
2017-06-21T10:40:41.285Z,1020.5
2017-06-21T10:41:50.329Z,1020.48
2017-06-21T10:42:59.228Z,1020.47
2017-06-21T10:44:08.127Z,1020.41
2017-06-21T10:45:17.428Z,1020.44
2017-06-21T10:46:26.374Z,1020.43
2017-06-21T10:47:35.285Z,1020.36
2017-06-21T10:48:44.177Z,1020.41
2017-06-21T10:49:53.398Z,1020.44
2017-06-21T10:51:02.678Z,1020.43
2017-06-21T10:52:11.900Z,1020.4
2017-06-21T10:53:21.228Z,1020.41
2017-06-21T10:54:30.160Z,1020.31
2017-06-21T10:55:39.053Z,1020.3
2017-06-21T10:56:47.989Z,1020.29
2017-06-21T10:57:56.886Z,1020.29
2017-06-21T10:59:06.010Z,1020.26
2017-06-21T11:00:15.264Z,1020.25
2017-06-21T11:01:24.162Z,1020.17
2017-06-21T11:02:33.132Z,1020.12
2017-06-21T11:03:42.023Z,1020.18
2017-06-21T11:04:51.256Z,1020.13
2017-06-21T11:06:00.149Z,1020.15
2017-06-21T11:07:09.371Z,1020.17
2017-06-21T11:08:18.599Z,1020.18
2017-06-21T11:09:27.814Z,1020.15
2017-06-21T11:10:37.086Z,1020.21
2017-06-21T11:11:45.977Z,1020.19
2017-06-21T11:12:54.866Z,1020.18
2017-06-21T11:14:04.087Z,1020.19
2017-06-21T11:15:12.976Z,1020.16
2017-06-21T11:16:22.027Z,1020.19
2017-06-21T11:17:31.138Z,1020.16
2017-06-21T11:18:40.149Z,1020.16
2017-06-21T11:19:49.041Z,1020.11
2017-06-21T11:20:57.936Z,1020.08
2017-06-21T11:22:06.880Z,1019.99
2017-06-21T11:23:15.822Z,1019.97
2017-06-21T11:24:24.746Z,1019.95
2017-06-21T11:25:33.696Z,1019.97
2017-06-21T11:26:42.934Z,1020
2017-06-21T11:27:52.391Z,1020
2017-06-21T11:29:01.620Z,1019.97
2017-06-21T11:30:10.547Z,1019.95
2017-06-21T11:31:19.461Z,1019.96
2017-06-21T11:32:28.714Z,1019.92
2017-06-21T11:33:38.048Z,1019.93
2017-06-21T11:34:47.583Z,1019.92
2017-06-21T11:35:56.543Z,1019.93
2017-06-21T11:37:05.802Z,1019.91
2017-06-21T11:38:15.051Z,1019.88
2017-06-21T11:39:24.450Z,1019.88
2017-06-21T11:40:33.775Z,1019.84
2017-06-21T11:41:42.681Z,1019.86
2017-06-21T11:42:51.602Z,1019.86
2017-06-21T11:44:00.520Z,1019.85
2017-06-21T11:45:10.486Z,1019.86
2017-06-21T11:46:20.022Z,1019.83
2017-06-21T11:47:28.937Z,1019.82
2017-06-21T11:48:37.828Z,1019.8
2017-06-21T11:49:46.722Z,1019.74
2017-06-21T11:50:55.998Z,1019.73
2017-06-21T11:52:05.245Z,1019.78
2017-06-21T11:53:14.149Z,1019.75
2017-06-21T11:54:23.369Z,1019.77
2017-06-21T11:55:32.912Z,1019.79
2017-06-21T11:56:42.495Z,1019.77
2017-06-21T11:57:51.657Z,1019.75
2017-06-21T11:59:00.550Z,1019.77
2017-06-21T12:00:09.850Z,1019.79
2017-06-21T12:01:18.752Z,1019.8
2017-06-21T12:02:28.053Z,1019.78
2017-06-21T12:03:36.961Z,1019.76
2017-06-21T12:04:46.193Z,1019.75
2017-06-21T12:05:55.112Z,1019.78
2017-06-21T12:07:04.030Z,1019.79
2017-06-21T12:08:13.237Z,1019.82
2017-06-21T12:09:22.144Z,1019.73
2017-06-21T12:10:31.052Z,1019.62
2017-06-21T12:11:39.966Z,1019.64
2017-06-21T12:12:48.878Z,1019.57
2017-06-21T12:13:57.787Z,1019.51
2017-06-21T12:15:06.698Z,1019.47
2017-06-21T12:16:15.930Z,1019.52
2017-06-21T12:17:24.831Z,1019.56
2017-06-21T12:18:33.741Z,1019.54
2017-06-21T12:19:42.846Z,1019.57
2017-06-21T12:20:52.073Z,1019.56
2017-06-21T12:22:00.975Z,1019.54
2017-06-21T12:23:09.883Z,1019.53
2017-06-21T12:24:19.312Z,1019.51
2017-06-21T12:25:28.511Z,1019.51
2017-06-21T12:26:37.740Z,1019.5
2017-06-21T12:27:46.972Z,1019.4
2017-06-21T12:28:55.877Z,1019.37
2017-06-21T12:30:04.785Z,1019.36
2017-06-21T12:31:14.093Z,1019.31
2017-06-21T12:32:23.325Z,1019.33
2017-06-21T12:33:32.228Z,1019.29
2017-06-21T12:34:41.153Z,1019.28
2017-06-21T12:35:50.384Z,1019.29
2017-06-21T12:36:59.664Z,1019.34
2017-06-21T12:38:08.574Z,1019.37
2017-06-21T12:39:17.479Z,1019.42
2017-06-21T12:40:26.384Z,1019.44
2017-06-21T12:41:35.287Z,1019.48
2017-06-21T12:42:44.353Z,1019.48
2017-06-21T12:43:53.263Z,1019.47
2017-06-21T12:45:02.252Z,1019.43
2017-06-21T12:46:11.815Z,1019.46
2017-06-21T12:47:20.725Z,1019.46
2017-06-21T12:48:30.114Z,1019.47
2017-06-21T12:49:39.037Z,1019.47
2017-06-21T12:50:47.945Z,1019.47
2017-06-21T12:51:56.857Z,1019.4
2017-06-21T12:53:06.421Z,1019.38
2017-06-21T12:54:15.431Z,1019.36
2017-06-21T12:55:24.344Z,1019.33
2017-06-21T12:56:33.583Z,1019.31
2017-06-21T12:57:42.502Z,1019.26
2017-06-21T12:58:51.418Z,1019.28
2017-06-21T13:00:00.374Z,1019.2
2017-06-21T13:01:09.619Z,1019.11
2017-06-21T13:02:18.530Z,1019.1
2017-06-21T13:03:27.439Z,1019.06
2017-06-21T13:04:36.677Z,1019.08
2017-06-21T13:05:46.113Z,1019.08
2017-06-21T13:06:55.028Z,1019.1
2017-06-21T13:08:04.260Z,1019.12
2017-06-21T13:09:13.170Z,1019.14
2017-06-21T13:10:22.127Z,1019.12
2017-06-21T13:11:31.039Z,1019.07
2017-06-21T13:12:40.276Z,1019.12
2017-06-21T13:13:49.530Z,1019.15
2017-06-21T13:14:58.764Z,1019.14
2017-06-21T13:16:07.674Z,1019.15
2017-06-21T13:17:16.587Z,1019.17
2017-06-21T13:18:25.501Z,1019.2
2017-06-21T13:19:34.412Z,1019.15
2017-06-21T13:20:43.648Z,1019.24
2017-06-21T13:21:52.890Z,1019.26
2017-06-21T13:23:02.127Z,1019.23
2017-06-21T13:24:11.361Z,1019.22
2017-06-21T13:25:20.272Z,1019.18
2017-06-21T13:26:29.190Z,1019.17
2017-06-21T13:27:38.103Z,1019.12
2017-06-21T13:28:47.339Z,1019.11
2017-06-21T13:29:56.266Z,1019.04
2017-06-21T13:31:05.505Z,1018.99
2017-06-21T13:32:14.417Z,1018.98
2017-06-21T13:33:23.330Z,1018.97
2017-06-21T13:34:32.242Z,1018.93
2017-06-21T13:35:41.154Z,1018.91
2017-06-21T13:36:50.440Z,1018.89
2017-06-21T13:37:59.350Z,1018.88
2017-06-21T13:39:08.595Z,1018.81
2017-06-21T13:40:17.520Z,1018.86
2017-06-21T13:41:26.432Z,1018.84
2017-06-21T13:42:35.443Z,1018.88
2017-06-21T13:43:44.352Z,1018.88
2017-06-21T13:44:53.266Z,1018.87
2017-06-21T13:46:02.826Z,1018.88
2017-06-21T13:47:12.076Z,1018.88
2017-06-21T13:48:21.238Z,1018.91
2017-06-21T13:49:30.795Z,1018.87
2017-06-21T13:50:39.732Z,1018.88
2017-06-21T13:51:48.969Z,1018.83
2017-06-21T13:52:57.889Z,1018.82
2017-06-21T13:54:06.906Z,1018.82
2017-06-21T13:55:15.821Z,1018.85
2017-06-21T13:56:25.058Z,1018.78
2017-06-21T13:57:34.943Z,1018.79
2017-06-21T13:58:43.854Z,1018.79
2017-06-21T13:59:52.862Z,1018.82
2017-06-21T14:01:02.122Z,1018.83
2017-06-21T14:02:11.690Z,1018.81